Time;durP1;ratioP1;P1;durP2;ratioP2;P2;SDS_P1;SDS_P2;PMS_P1;PMS_P2;Temp;Humidity;BMP_temperature;BMP_pressure;BME280_temperature;BME280_humidity;BME280_pressure;Samples;Min_cycle;Max_cycle;Signal;HPM_P1;HPM_P2
2022/03/18 00:00:45;;;;;;;68.93;43.13;;;51.70;2227.20;;;;;;5132371;27;20027;-75
2022/03/18 00:03:11;;;;;;;73.55;46.88;;;51.60;2227.20;;;;;;5113807;27;20035;-76
2022/03/18 00:05:37;;;;;;;69.28;44.22;;;51.60;2227.20;;;;;;5113410;27;20472;-76
2022/03/18 00:08:04;;;;;;;76.75;45.03;;;51.70;2227.20;;;;;;5131944;27;20019;-75
2022/03/18 00:10:31;;;;;;;78.63;48.83;;;51.70;2227.20;;;;;;5127069;27;20019;-76
2022/03/18 00:12:58;;;;;;;75.97;47.88;;;51.90;2227.20;;;;;;5129586;27;20029;-77
2022/03/18 00:15:24;;;;;;;72.55;43.30;;;51.90;2227.20;;;;;;5105185;28;20020;-76
2022/03/18 00:17:53;;;;;;;62.55;41.53;;;52.00;2227.20;;;;;;5114736;27;20020;-76
2022/03/18 00:20:20;;;;;;;63.85;39.80;;;52.10;2227.20;;;;;;5111324;27;20051;-75
2022/03/18 00:22:46;;;;;;;64.75;40.40;;;76.80;2227.20;;;;;;5109666;27;20015;-77
2022/03/18 00:25:13;;;;;;;66.00;40.08;;;52.10;2227.20;;;;;;5109750;27;20020;-76
2022/03/18 00:27:42;;;;;;;67.80;41.08;;;52.10;2227.20;;;;;;5129308;27;20072;-77
2022/03/18 00:30:12;;;;;;;57.08;35.67;;;52.00;2227.20;;;;;;5107618;28;20019;-77
2022/03/18 00:32:42;;;;;;;49.13;34.40;;;51.90;2227.20;;;;;;5129747;27;20019;-77
2022/03/18 00:35:08;;;;;;;54.50;35.70;;;51.90;2227.20;;;;;;5132856;27;20015;-77
2022/03/18 00:37:35;;;;;;;54.90;37.65;;;51.70;2227.20;;;;;;5126241;27;20027;-77
2022/03/18 00:40:02;;;;;;;87.40;49.63;;;51.70;2227.20;;;;;;5123919;27;20031;-77
2022/03/18 00:42:27;;;;;;;76.47;49.70;;;51.80;2227.20;;;;;;5129483;27;20035;-77
2022/03/18 00:44:53;;;;;;;74.43;47.00;;;;;;;;;;5127637;27;20034;-77
2022/03/18 00:52:49;;;;;;;85.63;48.38;;;;;;;;;;5125496;28;20058;-77
2022/03/18 00:55:15;;;;;;;76.07;45.40;;;;;;;;;;5098813;28;20148;-77
2022/03/18 00:57:41;;;;;;;72.10;45.30;;;;;;;;;;5107822;28;20035;-77
2022/03/18 01:00:08;;;;;;;72.57;46.92;;;;;;;;;;5132970;28;20011;-77
2022/03/18 01:02:34;;;;;;;65.82;43.17;;;;;;;;;;5132508;28;20062;-76
2022/03/18 01:05:00;;;;;;;72.50;45.58;;;;;;;;;;5132912;28;20110;-75
2022/03/18 01:07:28;;;;;;;66.00;42.55;;;;;;;;;;5132667;28;20023;-79
2022/03/18 01:09:54;;;;;;;71.57;46.67;;;;;;;;;;5114376;28;20470;-76
2022/03/18 01:12:20;;;;;;;78.63;46.40;;;;;;;;;;5114400;28;20516;-75
2022/03/18 01:14:47;;;;;;;66.30;42.17;;;;;;;;;;5114313;28;20019;-76
2022/03/18 01:17:13;;;;;;;79.55;44.20;;;;;;;;;;5132620;28;20031;-76
2022/03/18 01:19:40;;;;;;;67.90;43.83;;;;;;;;;;5132633;28;20019;-77
2022/03/18 01:22:06;;;;;;;76.97;45.90;;;;;;;;;;5132535;28;20075;-76
2022/03/18 01:24:32;;;;;;;71.78;46.72;;;;;;;;;;5132406;28;20072;-76
2022/03/18 01:26:58;;;;;;;72.65;46.33;;;77.20;2227.20;;;;;;5114287;28;20019;-76
2022/03/18 01:29:24;;;;;;;74.03;45.97;;;77.00;2227.20;;;;;;5132711;28;20031;-77
2022/03/18 01:31:49;;;;;;;79.70;49.72;;;77.00;2227.20;;;;;;5132038;28;20019;-77
2022/03/18 01:34:15;;;;;;;76.25;47.08;;;;;;;;;;5113852;28;20056;-76
2022/03/18 01:36:42;;;;;;;80.93;51.83;;;;;;;;;;5114171;28;20023;-76
2022/03/18 01:39:08;;;;;;;86.35;52.15;;;;;;;;;;5132503;28;20039;-76
2022/03/18 01:41:34;;;;;;;89.88;57.03;;;;;;;;;;5117414;27;20062;-77
2022/03/18 01:44:00;;;;;;;84.50;52.80;;;;;;;;;;5117955;27;20031;-76
2022/03/18 01:46:26;;;;;;;75.07;47.95;;;;;;;;;;5117922;27;20026;-76
2022/03/18 01:48:52;;;;;;;61.22;40.33;;;;;;;;;;5136076;27;20016;-76
2022/03/18 01:51:19;;;;;;;65.35;37.80;;;;;;;;;;5136259;27;20051;-76
2022/03/18 01:53:45;;;;;;;64.70;38.78;;;;;;;;;;5117365;27;20015;-76
2022/03/18 01:56:12;;;;;;;61.67;38.85;;;;;;;;;;5136128;27;20401;-77
2022/03/18 01:58:38;;;;;;;55.67;35.70;;;;;;;;;;5135848;27;20084;-78
2022/03/18 02:01:04;;;;;;;53.50;36.47;;;;;;;;;;5117671;27;20039;-77
2022/03/18 02:03:30;;;;;;;55.53;35.38;;;;;;;;;;5135525;27;20027;-77
2022/03/18 02:05:57;;;;;;;53.55;34.90;;;;;;;;;;5135700;27;20474;-76
2022/03/18 02:08:24;;;;;;;50.85;31.70;;;;;;;;;;5136129;27;20019;-76
2022/03/18 02:10:50;;;;;;;51.50;34.05;;;;;;;;;;5136152;27;20011;-78
2022/03/18 02:13:16;;;;;;;46.15;30.50;;;;;;;;;;5135549;27;20027;-78
2022/03/18 02:15:42;;;;;;;47.53;32.88;;;;;;;;;;5136195;27;20015;-78
2022/03/18 02:18:08;;;;;;;44.20;29.30;;;;;;;;;;5135506;27;20027;-78
2022/03/18 02:20:35;;;;;;;44.17;27.98;;;;;;;;;;5135829;27;20139;-78
2022/03/18 02:23:01;;;;;;;45.75;29.35;;;;;;;;;;5117395;27;20381;-78
2022/03/18 02:25:28;;;;;;;48.47;29.65;;;;;;;;;;5117357;27;20055;-78
2022/03/18 02:28:02;;;;;;;41.88;25.77;;;;;;;;;;5135634;27;20019;-76
2022/03/18 02:30:31;;;;;;;46.95;29.60;;;;;;;;;;5117169;27;20035;-77
2022/03/18 02:32:57;;;;;;;45.28;29.05;;;;;;;;;;5116612;27;20034;-76
2022/03/18 02:35:24;;;;;;;40.70;27.23;;;;;;;;;;5116790;27;20380;-75
2022/03/18 02:37:50;;;;;;;51.63;30.50;;;;;;;;;;5135476;27;20088;-76
2022/03/18 02:40:16;;;;;;;46.42;28.75;;;;;;;;;;5135566;27;20047;-76
2022/03/18 02:42:43;;;;;;;49.30;30.65;;;;;;;;;;5116777;27;20122;-78
2022/03/18 02:45:10;;;;;;;40.28;27.23;;;;;;;;;;5117022;27;20019;-78
2022/03/18 02:47:37;;;;;;;48.80;29.23;;;;;;;;;;5116727;27;20019;-78
2022/03/18 02:50:03;;;;;;;47.05;30.27;;;;;;;;;;5116695;27;20019;-78
2022/03/18 02:52:29;;;;;;;45.10;30.25;;;;;;;;;;5116101;27;20019;-76
2022/03/18 02:54:55;;;;;;;54.65;31.48;;;;;;;;;;5135142;27;20035;-75
2022/03/18 02:57:21;;;;;;;54.78;32.65;;;;;;;;;;5116435;27;20027;-74
2022/03/18 02:59:48;;;;;;;86.13;45.63;;;;;;;;;;5134807;27;20016;-74
2022/03/18 03:02:15;;;;;;;92.43;53.97;;;;;;;;;;5116500;27;20035;-75
2022/03/18 03:07:59;;;;;;;67.10;40.00;;;;;;;;;;5134430;27;20049;-74
2022/03/18 03:10:12;;;;;;;42.75;29.75;;;;;;;;;;5134765;27;20058;-77
2022/03/18 03:12:41;;;;;;;53.92;34.35;;;;;;;;;;5134770;27;20064;-75
2022/03/18 03:15:07;;;;;;;48.15;31.60;;;;;;;;;;5134706;27;20068;-78
2022/03/18 03:17:33;;;;;;;50.25;33.28;;;;;;;;;;5116171;27;20034;-75
2022/03/18 03:19:59;;;;;;;51.75;33.70;;;;;;;;;;5134631;27;20034;-76
2022/03/18 03:22:25;;;;;;;53.92;33.00;;;;;;;;;;5119851;27;20501;-77
2022/03/18 03:24:51;;;;;;;50.28;33.53;;;;;;;;;;5113976;28;20070;-76
2022/03/18 03:27:18;;;;;;;46.83;32.05;;;;;;;;;;5113964;28;20577;-77
2022/03/18 03:29:44;;;;;;;42.13;30.27;;;;;;;;;;5113823;28;20032;-76
2022/03/18 03:32:10;;;;;;;51.88;32.53;;;;;;;;;;5095464;28;20019;-77
2022/03/18 03:34:36;;;;;;;53.05;34.10;;;;;;;;;;5113479;28;20076;-75
2022/03/18 03:37:03;;;;;;;50.90;32.15;;;;;;;;;;5113704;28;20016;-77
2022/03/18 03:39:29;;;;;;;49.30;32.67;;;;;;;;;;5095149;28;20048;-78
2022/03/18 03:41:55;;;;;;;47.58;30.98;;;;;;;;;;5113197;28;20027;-78
2022/03/18 03:44:21;;;;;;;54.70;34.13;;;;;;;;;;5113641;28;20064;-75
2022/03/18 03:46:47;;;;;;;52.72;32.95;;;;;;;;;;5095287;28;20110;-78
2022/03/18 03:49:13;;;;;;;57.05;33.22;;;;;;;;;;5095209;28;20012;-76
2022/03/18 03:51:39;;;;;;;52.78;32.13;;;;;;;;;;5102997;27;20023;-76
2022/03/18 03:54:05;;;;;;;47.20;30.60;;;;;;;;;;5115580;27;20027;-75
2022/03/18 03:56:32;;;;;;;46.28;30.67;;;;;;;;;;5133631;27;20015;-75
2022/03/18 03:58:58;;;;;;;77.68;42.55;;;;;;;;;;5133230;27;20059;-76
2022/03/18 04:01:24;;;;;;;61.13;32.38;;;;;;;;;;5115394;27;20042;-77
2022/03/18 04:03:50;;;;;;;59.50;35.85;;;;;;;;;;5134066;27;20019;-76
2022/03/18 04:06:16;;;;;;;57.55;32.78;;;;;;;;;;5115226;27;20023;-76
2022/03/18 04:08:42;;;;;;;41.30;27.73;;;;;;;;;;5133956;27;20033;-76
2022/03/18 04:11:08;;;;;;;47.17;30.05;;;;;;;;;;5133368;27;20023;-78
2022/03/18 04:13:34;;;;;;;44.22;28.13;;;;;;;;;;5115187;27;20019;-78
2022/03/18 04:16:00;;;;;;;63.25;34.78;;;;;;;;;;5133255;27;20055;-76
2022/03/18 04:18:26;;;;;;;47.65;30.83;;;;;;;;;;5133175;27;20370;-75
2022/03/18 04:20:52;;;;;;;59.15;35.95;;;;;;;;;;5132934;27;20035;-75
2022/03/18 04:23:18;;;;;;;51.53;31.95;;;;;;;;;;5133406;27;20015;-76
2022/03/18 04:25:44;;;;;;;49.08;32.35;;;;;;;;;;5133343;27;20073;-75
2022/03/18 04:28:11;;;;;;;66.43;39.10;;;;;;;;;;5133277;27;20028;-78
2022/03/18 04:30:37;;;;;;;55.00;34.83;;;;;;;;;;5114816;27;20019;-76
2022/03/18 04:33:03;;;;;;;47.67;32.90;;;;;;;;;;5114824;27;20023;-75
2022/03/18 04:35:32;;;;;;;54.50;33.45;;;;;;;;;;5132941;27;20026;-76
2022/03/18 04:37:58;;;;;;;50.15;33.42;;;;;;;;;;5133342;27;20157;-76
2022/03/18 04:40:24;;;;;;;53.53;34.78;;;;;;;;;;5114391;27;20051;-76
2022/03/18 04:42:50;;;;;;;61.17;39.78;;;;;;;;;;5133076;27;20019;-76
2022/03/18 04:45:17;;;;;;;55.20;36.88;;;;;;;;;;5114856;27;20043;-76
2022/03/18 04:47:43;;;;;;;54.83;37.80;;;;;;;;;;5114642;27;20110;-77
2022/03/18 04:50:10;;;;;;;58.70;37.95;;;;;;;;;;5132989;27;20019;-76
2022/03/18 04:52:36;;;;;;;66.25;40.75;;;;;;;;;;5114406;28;20028;-76
2022/03/18 04:55:03;;;;;;;62.25;39.08;;;;;;;;;;5132999;28;20019;-76
2022/03/18 04:57:31;;;;;;;64.80;43.40;;;;;;;;;;5125444;28;20023;-76
2022/03/18 04:59:57;;;;;;;69.43;43.58;;;;;;;;;;5094374;28;20080;-76
2022/03/18 05:02:28;;;;;;;67.05;43.17;;;;;;;;;;5119995;28;20077;-78
2022/03/18 05:04:54;;;;;;;67.55;42.83;;;;;;;;;;5093845;28;20106;-77
2022/03/18 05:07:20;;;;;;;59.20;40.00;;;;;;;;;;5132440;28;20026;-77
2022/03/18 05:09:47;;;;;;;62.38;41.28;;;;;;;;;;5132786;28;20019;-77
2022/03/18 05:12:15;;;;;;;68.07;47.00;;;;;;;;;;5113772;28;20024;-77
2022/03/18 05:14:41;;;;;;;62.78;43.35;;;;;;;;;;5117940;28;20046;-77
2022/03/18 05:17:08;;;;;;;76.20;46.35;;;;;;;;;;5118564;27;20020;-78
2022/03/18 05:19:34;;;;;;;76.70;52.00;;;;;;;;;;5097310;28;20016;-77
2022/03/18 05:22:00;;;;;;;94.68;56.63;;;;;;;;;;5115272;28;20172;-78
2022/03/18 05:24:26;;;;;;;91.90;54.70;;;;;;;;;;5097184;28;20378;-77
2022/03/18 05:26:54;;;;;;;93.72;61.92;;;;;;;;;;5097086;28;20018;-77
2022/03/18 05:29:20;;;;;;;84.40;53.83;;;;;;;;;;5115287;28;20023;-76
2022/03/18 05:31:46;;;;;;;100.68;65.57;;;;;;;;;;5097128;28;20428;-83
2022/03/18 05:34:13;;;;;;;113.15;68.68;;;;;;;;;;5097152;28;20068;-78
2022/03/18 05:36:39;;;;;;;111.75;70.00;;;;;;;;;;5118186;27;20465;-78
2022/03/18 05:39:05;;;;;;;100.07;59.20;;;;;;;;;;5122132;27;20055;-78
2022/03/18 05:41:31;;;;;;;79.32;50.58;;;;;;;;;;5101896;28;20130;-77
2022/03/18 05:43:58;;;;;;;81.45;50.67;;;;;;;;;;5100418;28;20015;-77
2022/03/18 05:46:24;;;;;;;79.38;50.13;;;;;;;;;;5115228;27;20022;-77
2022/03/18 05:48:50;;;;;;;74.43;49.45;;;;;;;;;;5099483;28;20026;-79
2022/03/18 05:51:16;;;;;;;88.18;52.30;;;;;;;;;;5102239;27;20015;-78
2022/03/18 05:53:43;;;;;;;70.25;41.55;;;;;;;;;;5119425;27;20042;-77
2022/03/18 05:58:54;;;;;;;56.72;37.53;;;;;;;;;;5119095;27;20478;-78
2022/03/18 06:01:20;;;;;;;55.15;39.88;;;;;;;;;;5096726;28;20388;-80
2022/03/18 06:03:46;;;;;;;55.10;37.70;;;;;;;;;;5117978;27;20088;-81
2022/03/18 06:06:12;;;;;;;63.55;41.55;;;;;;;;;;5127825;27;20031;-84
2022/03/18 06:14:07;;;;;;;62.95;40.80;;;;;;;;;;5116796;27;20030;-79
2022/03/18 06:16:34;;;;;;;66.40;40.03;;;;;;;;;;5122800;27;20019;-84
2022/03/18 06:19:00;;;;;;;61.67;39.97;;;;;;;;;;5100385;27;20174;-86
2022/03/18 06:21:26;;;;;;;68.13;42.20;;;;;;;;;;5103658;28;20125;-80
2022/03/18 06:23:53;;;;;;;68.45;38.88;;;;;;;;;;5124587;27;20023;-82
2022/03/18 06:26:19;;;;;;;67.47;40.30;;;;;;;;;;5123638;27;21094;-81
2022/03/18 06:28:45;;;;;;;57.55;36.50;;;;;;;;;;5117585;27;20015;-81
2022/03/18 06:31:11;;;;;;;49.83;32.55;;;;;;;;;;5116864;27;20016;-83
2022/03/18 06:33:44;;;;;;;49.13;29.92;;;;;;;;;;5116232;27;20032;-77
2022/03/18 06:36:13;;;;;;;43.05;26.67;;;;;;;;;;5095784;28;20421;-77
2022/03/18 06:38:40;;;;;;;46.42;29.65;;;;;;;;;;5134025;27;20486;-80
2022/03/18 06:41:06;;;;;;;31.08;22.40;;;;;;;;;;5125982;27;20058;-83
2022/03/18 06:43:32;;;;;;;30.58;21.25;;;;;;;;;;5114660;27;20020;-77
2022/03/18 06:45:58;;;;;;;35.67;20.90;;;;;;;;;;5133029;27;20019;-84
2022/03/18 06:48:25;;;;;;;29.15;19.08;;;;;;;;;;5109657;28;20020;-80
2022/03/18 06:50:51;;;;;;;29.98;21.15;;;;;;;;;;5127203;27;20113;-79
2022/03/18 06:53:17;;;;;;;35.88;19.58;;;;;;;;;;5135010;27;20496;-84
2022/03/18 06:55:43;;;;;;;30.25;20.42;;;;;;;;;;5122550;27;20080;-83
2022/03/18 06:58:09;;;;;;;25.40;18.10;;;;;;;;;;5125649;27;20015;-81
2022/03/18 07:00:35;;;;;;;26.75;17.88;;;;;;;;;;5100372;27;20035;-83
2022/03/18 07:03:02;;;;;;;28.75;16.73;;;;;;;;;;5125550;27;20081;-83
2022/03/18 07:05:28;;;;;;;27.13;17.45;;;;;;;;;;5116394;27;20378;-83
2022/03/18 07:07:54;;;;;;;38.33;21.63;;;;;;;;;;5128639;27;20020;-84
2022/03/18 07:10:20;;;;;;;42.30;21.83;;;;;;;;;;5113173;27;20031;-82
2022/03/18 07:12:46;;;;;;;32.60;21.33;;;;;;;;;;5116682;27;20072;-83
2022/03/18 07:15:12;;;;;;;29.92;20.20;;;;;;;;;;5135253;27;20030;-83
2022/03/18 07:20:23;;;;;;;31.48;19.85;;;;;;;;;;5133705;27;20042;-83
2022/03/18 07:22:59;;;;;;;26.27;18.55;;;;;;;;;;5134179;27;20457;-83
2022/03/18 07:25:25;;;;;;;29.08;19.00;;;;;;;;;;5134752;27;20030;-82
2022/03/18 07:27:51;;;;;;;28.70;18.48;;;;;;;;;;5134540;27;20027;-81
2022/03/18 07:30:17;;;;;;;28.90;16.42;;;;;;;;;;5111807;27;20385;-83
2022/03/18 07:32:43;;;;;;;34.47;18.50;;;;;;;;;;5115051;27;20098;-81
2022/03/18 07:35:10;;;;;;;33.00;20.08;;;;;;;;;;5115924;27;20020;-80
2022/03/18 07:37:36;;;;;;;31.85;17.58;;;;;;;;;;5134071;27;20023;-82
2022/03/18 07:40:03;;;;;;;32.55;17.75;;;;;;;;;;5115747;27;20050;-83
2022/03/18 07:42:40;;;;;;;34.03;20.02;;;;;;;;;;5134262;27;20114;-83
2022/03/18 07:45:07;;;;;;;29.45;18.58;;;;;;;;;;5114236;27;20100;-81
2022/03/18 07:47:33;;;;;;;28.65;18.00;;;;;;;;;;5133734;27;20046;-81
2022/03/18 07:49:59;;;;;;;25.63;17.73;;;;;;;;;;5133661;27;20377;-81
2022/03/18 07:52:26;;;;;;;29.27;17.15;;;;;;;;;;5107718;27;20374;-82
2022/03/18 07:54:52;;;;;;;21.67;16.17;;;;;;;;;;5113965;27;20031;-80
2022/03/18 07:57:18;;;;;;;23.25;14.80;;;;;;;;;;5112986;28;20033;-82
2022/03/18 07:59:44;;;;;;;25.10;17.17;;;;;;;;;;5113282;28;20733;-81
2022/03/18 08:02:10;;;;;;;17.10;13.57;;;;;;;;;;5113459;28;20068;-79
2022/03/18 08:04:36;;;;;;;18.67;13.35;;;;;;;;;;5113284;28;20022;-81
2022/03/18 08:07:03;;;;;;;27.30;14.15;;;;;;;;;;5130931;27;20030;-80
2022/03/18 08:09:29;;;;;;;21.23;15.35;;;;;;;;;;5134183;27;20019;-80
2022/03/18 08:11:55;;;;;;;29.75;18.27;;;;;;;;;;5133733;27;20019;-79
2022/03/18 08:14:21;;;;;;;37.65;17.40;;;;;;;;;;5107595;27;20167;-78
2022/03/18 08:16:48;;;;;;;20.35;14.73;;;;;;;;;;5109008;27;20105;-78
2022/03/18 08:19:14;;;;;;;21.23;14.15;;;;;;;;;;5112379;27;20056;-80
2022/03/18 08:21:40;;;;;;;23.65;15.32;;;;;;;;;;5126342;27;20039;-79
2022/03/18 08:24:07;;;;;;;31.90;15.90;;;;;;;;;;5115420;27;20106;-79
2022/03/18 08:26:37;;;;;;;21.13;15.73;;;;;;;;;;5132297;27;20704;-80
2022/03/18 08:29:09;;;;;;;41.58;23.00;;;205.10;1817.60;;;;;;5114844;27;20034;-81
2022/03/18 08:31:35;;;;;;;41.00;18.60;;;205.10;1817.60;;;;;;5123145;27;20538;-81
2022/03/18 08:34:01;;;;;;;28.08;16.73;;;205.20;1792.00;;;;;;5096883;28;20059;-82
2022/03/18 08:36:27;;;;;;;24.33;14.95;;;205.10;1843.20;;;;;;5113072;28;20026;-81
2022/03/18 08:38:52;;;;;;;20.20;13.13;;;205.20;1843.20;;;;;;5094467;28;20406;-80
2022/03/18 08:41:18;;;;;;;28.20;15.10;;;205.10;1868.80;;;;;;5096216;27;20046;-80
2022/03/18 08:43:44;;;;;;;26.40;16.05;;;205.30;1817.60;;;;;;5116006;28;20027;-80
2022/03/18 08:46:10;;;;;;;20.38;14.32;;;205.40;1792.00;;;;;;5101160;28;20035;-81
2022/03/18 08:48:35;;;;;;;18.00;12.93;;;205.40;1792.00;;;;;;5112856;28;20428;-81
2022/03/18 08:51:01;;;;;;;20.35;12.68;;;205.30;1766.40;;;;;;5094372;28;20062;-80
2022/03/18 08:53:27;;;;;;;18.88;13.00;;;205.10;1792.00;;;;;;5113148;27;20054;-81
2022/03/18 08:55:54;;;;;;;19.83;13.65;;;205.40;1766.40;;;;;;5115317;28;20033;-80
2022/03/18 08:58:22;;;;;;;18.75;12.38;;;230.60;1689.60;;;;;;5114555;28;20030;-80
2022/03/18 09:00:48;;;;;;;24.55;14.35;;;230.60;1689.60;;;;;;5133063;28;20418;-80
2022/03/18 09:03:14;;;;;;;19.02;13.73;;;230.60;1715.20;;;;;;5114718;28;20109;-79
2022/03/18 09:05:40;;;;;;;29.60;15.60;;;230.70;1689.60;;;;;;5119950;28;20440;-81
2022/03/18 09:08:06;;;;;;;23.90;17.02;;;230.70;1689.60;;;;;;5097828;28;20027;-78
2022/03/18 09:10:31;;;;;;;24.23;16.00;;;231.00;1664.00;;;;;;5112746;28;20031;-79
2022/03/18 09:13:00;;;;;;;21.13;15.18;;;230.60;1689.60;;;;;;5133164;28;20027;-79
2022/03/18 09:15:30;;;;;;;18.02;13.93;;;231.00;1638.40;;;;;;5111667;28;20032;-79
2022/03/18 09:17:56;;;;;;;19.85;13.30;;;231.00;1638.40;;;;;;5112406;28;20020;-79
2022/03/18 09:20:21;;;;;;;18.80;12.93;;;231.20;1612.80;;;;;;5102648;28;20034;-77
2022/03/18 09:22:47;;;;;;;21.88;16.15;;;256.00;1587.20;;;;;;5132218;28;20034;-78
2022/03/18 09:25:14;;;;;;;26.77;14.65;;;256.00;1587.20;;;;;;5131740;28;20023;-78
2022/03/18 09:27:40;;;;;;;21.40;13.95;;;231.10;1638.40;;;;;;5114000;28;20470;-79
2022/03/18 09:30:07;;;;;;;19.90;15.52;;;231.30;1612.80;;;;;;5114229;28;20024;-77
2022/03/18 09:32:34;;;;;;;21.23;16.52;;;;;;;;;;5132612;28;20020;-78
2022/03/18 09:35:00;;;;;;;19.90;14.88;;;256.90;1536.00;;;;;;5114358;28;20026;-77
2022/03/18 09:37:25;;;;;;;20.55;13.85;;;256.80;1536.00;;;;;;5132497;28;20028;-78
2022/03/18 09:39:51;;;;;;;18.30;13.70;;;;;;;;;;5132395;28;20047;-77
2022/03/18 09:42:17;;;;;;;19.95;14.50;;;;;;;;;;5093396;28;20039;-77
2022/03/18 09:44:43;;;;;;;20.15;15.48;;;281.70;1536.00;;;;;;5112371;28;20113;-77
2022/03/18 09:47:09;;;;;;;22.23;14.50;;;282.10;1510.40;;;;;;5111911;28;20094;-76
2022/03/18 09:49:36;;;;;;;21.90;14.55;;;;;;;;;;5112202;28;20102;-77
2022/03/18 09:52:03;;;;;;;27.98;13.82;;;;;;;;;;5093650;28;20026;-77
2022/03/18 09:54:30;;;;;;;22.90;14.98;;;;;;;;;;5111849;28;20016;-77
2022/03/18 09:56:56;;;;;;;16.67;12.32;;;;;;;;;;5111808;28;20020;-78
2022/03/18 09:59:24;;;;;;;18.98;14.00;;;;;;;;;;5111200;28;20020;-77
2022/03/18 10:01:50;;;;;;;19.48;14.48;;;;;;;;;;5113339;28;20491;-76
2022/03/18 10:04:16;;;;;;;21.48;14.50;;;;;;;;;;5097208;28;20046;-77
2022/03/18 10:06:43;;;;;;;21.73;13.52;;;;;;;;;;5115518;28;20027;-78
2022/03/18 10:09:10;;;;;;;22.85;14.27;;;;;;;;;;5115152;28;20027;-77
2022/03/18 10:11:43;;;;;;;22.80;12.23;;;;;;;;;;5097160;28;20026;-76
2022/03/18 10:14:10;;;;;;;15.80;10.80;;;;;;;;;;5097006;28;20020;-78
2022/03/18 10:16:42;;;;;;;15.80;11.02;;;;;;;;;;5114713;28;20039;-77
2022/03/18 10:19:08;;;;;;;21.30;10.82;;;;;;;;;;5115161;28;20098;-79
2022/03/18 10:21:55;;;;;;;20.90;10.80;;;;;;;;;;5115421;28;20062;-76
2022/03/18 10:24:31;;;;;;;23.58;13.20;;;;;;;;;;5098369;28;20110;-78
2022/03/18 10:27:13;;;;;;;17.67;12.52;;;;;;;;;;5096832;28;20028;-77
2022/03/18 10:29:46;;;;;;;23.38;13.73;;;;;;;;;;5109837;27;20027;-77
2022/03/18 10:32:14;;;;;;;18.10;11.07;;;;;;;;;;5127259;27;20023;-77
2022/03/18 10:37:25;;;;;;;18.23;10.05;;;;;;;;;;5118278;27;20030;-78
2022/03/18 10:39:58;;;;;;;16.27;12.25;;;;;;;;;;5115294;28;20047;-77
2022/03/18 10:42:24;;;;;;;19.70;11.73;;;;;;;;;;5097966;28;20067;-78
2022/03/18 10:44:52;;;;;;;20.80;13.15;;;;;;;;;;5116344;28;20030;-77
2022/03/18 10:47:26;;;;;;;15.27;11.73;;;;;;;;;;5118412;27;20103;-77
2022/03/18 10:49:52;;;;;;;13.93;12.10;;;;;;;;;;5097422;28;20023;-77
2022/03/18 10:52:23;;;;;;;18.77;12.98;;;;;;;;;;5115424;28;20016;-76
2022/03/18 10:54:49;;;;;;;21.85;11.50;;;;;;;;;;5114056;28;20016;-76
2022/03/18 10:57:19;;;;;;;20.30;13.05;;;;;;;;;;5114092;28;20089;-76
2022/03/18 10:59:45;;;;;;;13.85;10.07;;;;;;;;;;5114366;28;20489;-76
2022/03/18 11:02:14;;;;;;;18.73;11.48;;;;;;;;;;5113899;28;20470;-76
2022/03/18 11:04:41;;;;;;;23.13;12.20;;;;;;;;;;5095805;28;20019;-75
2022/03/18 11:12:42;;;;;;;15.02;11.32;;;;;;;;;;5113499;28;20508;-78
2022/03/18 11:15:08;;;;;;;16.67;9.35;;;;;;;;;;5113793;28;20166;-77
2022/03/18 11:17:34;;;;;;;13.30;10.07;;;;;;;;;;5113680;28;20024;-76
2022/03/18 11:20:01;;;;;;;16.42;11.88;;;;;;;;;;5114101;28;20474;-77
2022/03/18 11:22:28;;;;;;;19.77;10.38;;;;;;;;;;5114042;28;20031;-77
2022/03/18 11:24:54;;;;;;;13.65;8.35;;;;;;;;;;5113464;28;20031;-77
2022/03/18 11:27:20;;;;;;;14.38;9.52;;;;;;;;;;5113362;28;20019;-76
2022/03/18 11:29:47;;;;;;;19.42;10.68;;;;;;;;;;5109569;27;20469;-76
2022/03/18 11:32:13;;;;;;;13.00;9.90;;;;;;;;;;5134178;27;20023;-78
2022/03/18 11:34:56;;;;;;;14.63;9.98;;;;;;;;;;5116102;27;20030;-77
2022/03/18 11:37:25;;;;;;;14.55;9.82;;;;;;;;;;5136590;27;20038;-78
2022/03/18 11:39:51;;;;;;;12.95;9.73;;;;;;;;;;5134144;27;20054;-77
2022/03/18 11:42:21;;;;;;;17.52;10.20;;;;;;;;;;5115442;27;20031;-78
2022/03/18 11:44:55;;;;;;;10.57;8.85;;;;;;;;;;5133562;27;20030;-76
2022/03/18 11:47:28;;;;;;;17.10;9.32;;;;;;;;;;5133839;27;20043;-77
2022/03/18 11:49:55;;;;;;;11.40;9.52;;;;;;;;;;5134171;27;20477;-79
2022/03/18 11:52:21;;;;;;;14.88;10.30;;;;;;;;;;5115311;27;20027;-78
2022/03/18 11:54:51;;;;;;;12.32;8.80;;;;;;;;;;5133235;27;20054;-76
2022/03/18 11:57:33;;;;;;;16.08;11.13;;;;;;;;;;5095025;28;20072;-76
2022/03/18 12:00:00;;;;;;;11.38;8.73;;;;;;;;;;5111926;28;20026;-79
2022/03/18 12:02:33;;;;;;;12.45;7.75;;;;;;;;;;5094381;28;20118;-77
2022/03/18 12:04:59;;;;;;;14.48;8.85;;;;;;;;;;5112353;28;20023;-76
2022/03/18 12:07:30;;;;;;;15.85;8.80;;;;;;;;;;5111601;28;20027;-76
2022/03/18 12:10:00;;;;;;;10.43;8.52;;;;;;;;;;5094632;28;20027;-78
2022/03/18 12:12:34;;;;;;;12.13;9.52;;;;;;;;;;5112298;27;20553;-75
2022/03/18 12:15:08;;;;;;;15.65;11.20;;;;;;;;;;5111892;28;20024;-77
2022/03/18 12:17:42;;;;;;;13.88;8.00;;;;;;;;;;5113874;28;20482;-76
2022/03/18 12:20:09;;;;;;;11.40;9.65;;;;;;;;;;5113035;28;20534;-77
2022/03/18 12:22:37;;;;;;;11.45;8.32;;;;;;;;;;5112245;28;20414;-74
2022/03/18 12:25:04;;;;;;;10.90;9.02;;;;;;;;;;5111255;28;20360;-77
2022/03/18 12:27:36;;;;;;;12.63;8.70;;;;;;;;;;5094331;28;20066;-77
2022/03/18 12:30:03;;;;;;;14.20;9.45;;;;;;;;;;5128700;27;20019;-77
2022/03/18 12:32:29;;;;;;;18.17;11.80;;;;;;;;;;5114687;27;20030;-77
2022/03/18 12:34:56;;;;;;;20.05;11.57;;;;;;;;;;5132742;27;20084;-76
2022/03/18 12:37:23;;;;;;;31.10;18.60;;;;;;;;;;5132907;27;20513;-76
2022/03/18 12:40:03;;;;;;;17.40;11.15;;;;;;;;;;5114110;27;20454;-76
2022/03/18 12:42:29;;;;;;;20.80;13.85;;;;;;;;;;5114326;27;20035;-76
2022/03/18 12:44:58;;;;;;;33.13;16.33;;;;;;;;;;5132907;27;20019;-75
2022/03/18 12:47:26;;;;;;;20.70;12.05;;;;;;;;;;5114431;27;20030;-75
2022/03/18 12:49:52;;;;;;;14.68;10.48;;;;;;;;;;5132832;27;20538;-74
2022/03/18 12:52:19;;;;;;;27.95;14.75;;;;;;;;;;5114173;28;20049;-75
2022/03/18 12:55:07;;;;;;;13.55;10.82;;;;;;;;;;5132341;27;20025;-76
2022/03/18 12:57:43;;;;;;;17.17;10.35;;;;;;;;;;5093030;28;20030;-76
2022/03/18 13:00:11;;;;;;;12.00;9.10;;;;;;;;;;5112588;28;20195;-75
2022/03/18 13:02:37;;;;;;;19.33;12.98;;;;;;;;;;5093739;28;20066;-75
2022/03/18 13:05:05;;;;;;;16.50;11.93;;;;;;;;;;5111943;28;20030;-75
2022/03/18 13:07:32;;;;;;;16.17;11.10;;;;;;;;;;5114441;28;20016;-75
2022/03/18 13:09:58;;;;;;;22.98;13.65;;;;;;;;;;5111617;28;20917;-76
2022/03/18 13:12:24;;;;;;;10.75;9.02;;;;;;;;;;5111861;28;20045;-75
2022/03/18 13:14:53;;;;;;;16.52;12.23;;;;;;;;;;5111947;28;20075;-76
2022/03/18 13:17:34;;;;;;;14.55;9.60;;;;;;;;;;5093591;28;20024;-75
2022/03/18 13:20:00;;;;;;;13.20;9.02;;;;;;;;;;5111865;28;20492;-76
2022/03/18 13:22:30;;;;;;;16.77;9.70;;;;;;;;;;5092674;28;20122;-76
2022/03/18 13:24:59;;;;;;;13.13;9.48;;;;;;;;;;5111655;28;20070;-75
2022/03/18 13:27:25;;;;;;;14.43;8.40;;;;;;;;;;5111620;28;20019;-75
2022/03/18 13:32:50;;;;;;;13.95;11.23;;;;;;;;;;5132262;28;20038;-76
2022/03/18 13:35:16;;;;;;;12.90;9.82;;;;;;;;;;5113845;27;20090;-76
2022/03/18 13:37:42;;;;;;;13.70;8.65;;;;;;;;;;5117431;27;20019;-76
2022/03/18 13:40:13;;;;;;;11.77;9.07;;;;;;;;;;5137019;27;20047;-78
2022/03/18 13:42:41;;;;;;;12.25;9.00;;;;;;;;;;5116559;27;20164;-77
2022/03/18 13:45:07;;;;;;;20.15;8.93;;;;;;;;;;5113543;27;20024;-76
2022/03/18 13:47:47;;;;;;;12.80;9.10;;;;;;;;;;5117111;28;20043;-75
2022/03/18 13:50:17;;;;;;;15.00;11.30;;;;;;;;;;5118708;28;20019;-75
2022/03/18 13:52:44;;;;;;;17.85;10.15;;;;;;;;;;5120773;28;20478;-75
2022/03/18 13:55:27;;;;;;;19.95;13.75;;;;;;;;;;5120874;28;20016;-76
2022/03/18 13:57:53;;;;;;;18.67;13.53;;;;;;;;;;5117856;28;20016;-76
2022/03/18 14:00:29;;;;;;;21.50;15.10;;;;;;;;;;5118826;28;20019;-75
2022/03/18 14:03:05;;;;;;;22.38;12.02;;;;;;;;;;5102047;28;20043;-75
2022/03/18 14:05:33;;;;;;;15.75;10.52;;;;;;;;;;5120965;28;20023;-75
2022/03/18 14:08:00;;;;;;;16.35;11.55;;;;;;;;;;5121281;28;20024;-78
2022/03/18 14:10:41;;;;;;;28.52;13.82;;;;;;;;;;5121554;28;20020;-75
2022/03/18 14:13:10;;;;;;;22.10;10.88;;;;;;;;;;5120192;28;20047;-76
2022/03/18 14:15:36;;;;;;;16.30;10.05;;;;;;;;;;5115134;28;20042;-77
2022/03/18 14:18:02;;;;;;;17.15;9.65;;;;;;;;;;5119985;28;20015;-76
2022/03/18 14:20:28;;;;;;;13.35;9.85;;;;;;;;;;5099021;28;20432;-75
2022/03/18 14:22:57;;;;;;;23.30;17.20;;;;;;;;;;5099234;28;20118;-76
2022/03/18 14:25:23;;;;;;;22.65;14.77;;;;;;;;;;5098185;28;20020;-75